createdAt,value
2019-01-06T00:04:04.979Z,3.80
2019-01-06T00:08:26.676Z,3.50
2019-01-06T00:12:45.512Z,4.00
2019-01-06T00:17:11.426Z,3.63
2019-01-06T00:21:46.515Z,3.93
2019-01-06T00:26:07.875Z,4.03
2019-01-06T00:30:36.506Z,3.10
2019-01-06T00:35:16.496Z,3.47
2019-01-06T00:39:38.419Z,4.50
2019-01-06T00:43:55.866Z,3.60
2019-01-06T00:48:28.290Z,3.27
2019-01-06T00:52:50.138Z,3.60
2019-01-06T00:57:24.027Z,3.33
2019-01-06T01:01:46.395Z,4.57
2019-01-06T01:06:21.133Z,3.60
2019-01-06T01:10:46.995Z,5.23
2019-01-06T01:15:08.795Z,3.47
2019-01-06T01:19:29.417Z,3.20
2019-01-06T01:23:51.454Z,3.73
2019-01-06T01:28:09.247Z,3.07
2019-01-06T01:32:41.264Z,4.03
2019-01-06T01:37:02.812Z,3.80
2019-01-06T01:41:25.633Z,4.40
2019-01-06T01:45:47.061Z,2.83
2019-01-06T01:50:09.188Z,3.40
2019-01-06T01:54:44.170Z,2.63
2019-01-06T01:59:06.298Z,2.90
2019-01-06T02:03:28.220Z,2.60
2019-01-06T02:08:09.632Z,2.73
2019-01-06T02:12:32.064Z,2.77
2019-01-06T02:16:59.564Z,2.80
2019-01-06T02:21:21.543Z,2.90
2019-01-06T02:25:43.529Z,2.50
2019-01-06T02:30:05.304Z,1.70
2019-01-06T02:34:27.129Z,2.80
2019-01-06T02:38:50.108Z,3.20
2019-01-06T02:43:11.691Z,3.40
2019-01-06T02:47:34.739Z,2.20
2019-01-06T02:51:58.877Z,3.30
2019-01-06T02:56:19.494Z,3.97
2019-01-06T03:00:41.201Z,2.93
2019-01-06T03:05:01.412Z,3.63
2019-01-06T03:09:18.123Z,2.20
2019-01-06T03:13:47.908Z,3.30
2019-01-06T03:18:03.266Z,3.87
2019-01-06T03:22:24.902Z,4.17
2019-01-06T03:26:43.823Z,4.67
2019-01-06T03:31:08.144Z,5.00
2019-01-06T03:35:23.773Z,5.43
2019-01-06T03:39:52.092Z,5.00
2019-01-06T03:44:14.052Z,5.10
2019-01-06T03:48:46.426Z,4.60
2019-01-06T03:53:05.233Z,4.80
2019-01-06T03:57:34.349Z,3.43
2019-01-06T04:02:15.244Z,3.40
2019-01-06T04:06:46.364Z,2.90
2019-01-06T04:11:15.056Z,3.00
2019-01-06T04:15:40.932Z,2.53
2019-01-06T04:20:02.449Z,2.60
2019-01-06T04:24:40.369Z,2.87
2019-01-06T04:29:06.105Z,2.27
2019-01-06T04:33:26.598Z,2.73
2019-01-06T04:37:48.361Z,2.70
2019-01-06T04:42:09.683Z,2.07
2019-01-06T04:46:38.351Z,3.27
2019-01-06T04:51:01.036Z,2.90
2019-01-06T04:55:36.483Z,2.90
2019-01-06T04:59:58.371Z,2.90
2019-01-06T05:04:17.919Z,2.63
2019-01-06T05:08:46.907Z,3.33
2019-01-06T05:13:01.313Z,3.20
2019-01-06T05:17:36.416Z,3.17
2019-01-06T05:21:59.637Z,3.00
2019-01-06T05:26:28.650Z,4.60
2019-01-06T05:30:45.957Z,4.67
2019-01-06T05:35:11.645Z,3.63
2019-01-06T05:39:33.363Z,3.60
2019-01-06T05:43:55.965Z,2.93
2019-01-06T05:48:15.719Z,2.03
2019-01-06T05:52:37.566Z,2.67
2019-01-06T05:56:59.678Z,2.30
2019-01-06T06:01:28.947Z,2.30
2019-01-06T06:05:50.587Z,2.23
2019-01-06T06:10:12.849Z,2.40
2019-01-06T06:14:34.756Z,2.17
2019-01-06T06:18:56.686Z,2.20
2019-01-06T06:23:18.624Z,2.77
2019-01-06T06:27:56.927Z,2.93
2019-01-06T06:32:18.495Z,3.77
2019-01-06T06:36:44.100Z,2.47
2019-01-06T06:41:06.703Z,2.40
2019-01-06T06:45:40.999Z,2.70
2019-01-06T06:49:59.344Z,4.27
2019-01-06T06:54:24.312Z,3.50
2019-01-06T06:58:47.235Z,3.33
2019-01-06T07:03:24.214Z,3.23
2019-01-06T07:07:53.190Z,2.57
2019-01-06T07:12:11.036Z,3.20
2019-01-06T07:17:15.231Z,2.37
2019-01-06T07:21:41.234Z,3.57
2019-01-06T07:26:22.930Z,3.93
2019-01-06T07:30:45.067Z,2.87
2019-01-06T07:35:06.638Z,3.73
2019-01-06T07:39:38.131Z,4.27
2019-01-06T07:44:20.003Z,3.77
2019-01-06T07:48:55.020Z,4.40
2019-01-06T07:53:16.889Z,3.93
2019-01-06T07:57:38.666Z,3.83
2019-01-06T08:02:13.448Z,3.60
2019-01-06T08:06:36.270Z,5.80
2019-01-06T08:11:02.050Z,4.17
2019-01-06T08:15:24.317Z,4.60
2019-01-06T08:19:53.274Z,5.73
2019-01-06T08:24:12.658Z,5.03
2019-01-06T08:28:42.378Z,5.90
2019-01-06T08:33:04.133Z,4.50
2019-01-06T08:37:39.285Z,5.50
2019-01-06T08:42:02.104Z,4.40
2019-01-06T08:46:25.119Z,3.43
2019-01-06T08:50:42.841Z,4.60
2019-01-06T08:55:05.732Z,4.17
2019-01-06T08:59:28.791Z,4.90
2019-01-06T09:03:50.431Z,5.90
2019-01-06T09:08:13.251Z,4.00
2019-01-06T09:12:33.089Z,4.97
2019-01-06T09:16:54.206Z,3.53
2019-01-06T09:21:17.743Z,3.47
2019-01-06T09:25:41.387Z,3.47
2019-01-06T09:30:13.668Z,4.00
2019-01-06T09:34:36.619Z,3.60
2019-01-06T09:38:58.946Z,3.37
2019-01-06T09:43:34.226Z,3.17
2019-01-06T09:48:06.146Z,4.03
2019-01-06T09:52:34.890Z,3.50
2019-01-06T09:57:00.691Z,3.20
2019-01-06T10:01:17.251Z,3.13
2019-01-06T10:05:40.199Z,3.33
2019-01-06T10:10:14.763Z,2.43
2019-01-06T10:14:49.947Z,2.37
2019-01-06T10:19:11.436Z,2.27
2019-01-06T10:23:32.467Z,2.70
2019-01-06T10:28:13.170Z,2.60
2019-01-06T10:32:30.548Z,2.00
2019-01-06T10:36:53.890Z,2.43
2019-01-06T10:41:34.968Z,2.10
2019-01-06T10:45:50.765Z,2.27
2019-01-06T10:50:28.383Z,2.90
2019-01-06T10:55:00.164Z,2.47
2019-01-06T10:59:29.012Z,2.50
2019-01-06T11:03:50.711Z,3.07
2019-01-06T11:08:18.060Z,3.30
2019-01-06T11:12:46.018Z,2.90
2019-01-06T11:17:17.539Z,3.57
2019-01-06T11:21:42.449Z,4.03
2019-01-06T11:26:05.558Z,4.10
2019-01-06T11:30:25.075Z,3.57
2019-01-06T11:34:53.827Z,4.37
2019-01-06T11:39:19.716Z,7.10
2019-01-06T11:43:51.811Z,4.00
2019-01-06T11:48:13.360Z,4.13
2019-01-06T11:52:34.236Z,5.00
2019-01-06T11:56:51.659Z,4.97
2019-01-06T12:01:08.352Z,4.10
2019-01-06T12:05:30.220Z,4.47
2019-01-06T12:10:12.592Z,3.90
2019-01-06T12:14:44.265Z,3.60
2019-01-06T12:18:59.011Z,4.07
2019-01-06T12:23:31.282Z,3.57
2019-01-06T12:27:53.309Z,3.10
2019-01-06T12:32:15.138Z,3.37
2019-01-06T12:36:32.373Z,3.50
2019-01-06T12:40:49.827Z,2.70
2019-01-06T12:45:07.062Z,3.10
2019-01-06T12:49:42.527Z,3.27
2019-01-06T12:54:14.575Z,3.30
2019-01-06T12:58:36.308Z,3.37
2019-01-06T13:02:59.231Z,3.40
2019-01-06T13:07:16.649Z,2.83
2019-01-06T13:11:38.602Z,3.23
2019-01-06T13:16:00.049Z,3.63
2019-01-06T13:20:23.142Z,4.00
2019-01-06T13:24:45.702Z,2.60
2019-01-06T13:29:02.762Z,3.37
2019-01-06T13:33:31.226Z,2.50
2019-01-06T13:38:03.269Z,2.80
2019-01-06T13:42:17.235Z,2.90
2019-01-06T13:46:39.798Z,3.00
2019-01-06T13:51:20.580Z,2.80
2019-01-06T13:55:43.564Z,1.60
2019-01-06T14:00:05.209Z,2.50
2019-01-06T14:04:26.978Z,1.80
2019-01-06T14:08:48.562Z,1.33
2019-01-06T14:13:01.382Z,1.60
2019-01-06T14:17:36.403Z,1.50
2019-01-06T14:21:58.087Z,1.30
2019-01-06T14:26:17.985Z,1.50
2019-01-06T14:30:39.760Z,1.70
2019-01-06T14:34:53.907Z,1.47
2019-01-06T14:39:15.523Z,1.70
2019-01-06T14:43:38.029Z,1.80
2019-01-06T14:47:55.587Z,1.33
2019-01-06T14:52:26.054Z,1.27
2019-01-06T14:56:41.836Z,2.00
2019-01-06T15:01:03.283Z,1.60
2019-01-06T15:05:29.517Z,1.50
2019-01-06T15:10:07.162Z,1.37
2019-01-06T15:14:46.525Z,1.83
2019-01-06T15:19:07.829Z,1.70
2019-01-06T15:23:43.075Z,1.70
2019-01-06T15:28:04.769Z,1.47
2019-01-06T15:32:21.706Z,3.00
2019-01-06T15:36:40.484Z,1.80
2019-01-06T15:41:02.321Z,2.50
2019-01-06T15:45:24.155Z,2.17
2019-01-06T15:49:56.307Z,4.40
2019-01-06T15:54:18.002Z,2.03
2019-01-06T15:58:43.395Z,2.17
2019-01-06T16:02:59.329Z,2.00
2019-01-06T16:07:15.256Z,3.00
2019-01-06T16:11:37.030Z,2.20
2019-01-06T16:16:00.912Z,3.53
2019-01-06T16:20:17.065Z,2.50
2019-01-06T16:24:38.566Z,2.67
2019-01-06T16:29:00.300Z,2.53
2019-01-06T16:33:34.523Z,2.87
2019-01-06T16:38:03.485Z,2.90
2019-01-06T16:42:27.658Z,2.60
2019-01-06T16:46:50.873Z,3.57
2019-01-06T16:51:25.411Z,3.13
2019-01-06T16:55:54.471Z,3.63
2019-01-06T17:00:32.580Z,4.47
2019-01-06T17:04:54.322Z,3.27
2019-01-06T17:09:16.116Z,4.60
2019-01-06T17:13:37.406Z,4.03
2019-01-06T17:18:15.536Z,3.43
2019-01-06T17:22:37.344Z,3.40
2019-01-06T17:26:59.458Z,4.90
2019-01-06T17:31:31.248Z,3.73
2019-01-06T17:35:54.255Z,4.50
2019-01-06T17:40:20.881Z,4.67
2019-01-06T17:44:40.062Z,4.07
2019-01-06T17:49:05.986Z,4.60
2019-01-06T17:53:27.389Z,5.20
2019-01-06T17:57:50.240Z,4.17
2019-01-06T18:02:09.973Z,4.30
2019-01-06T18:06:26.059Z,4.73
2019-01-06T18:10:55.175Z,4.80
2019-01-06T18:15:26.786Z,4.33
2019-01-06T18:19:50.731Z,5.53
2019-01-06T18:24:14.192Z,4.13
2019-01-06T18:28:36.118Z,4.97
2019-01-06T18:32:59.480Z,4.80
2019-01-06T18:37:22.395Z,6.80
2019-01-06T18:41:43.987Z,4.37
2019-01-06T18:46:05.805Z,6.03
2019-01-06T18:50:34.994Z,5.60
2019-01-06T18:54:56.774Z,5.20
2019-01-06T18:59:18.159Z,5.77
2019-01-06T19:03:43.940Z,5.03
2019-01-06T19:08:06.605Z,5.23
2019-01-06T19:12:35.520Z,5.80
2019-01-06T19:16:57.229Z,5.90
2019-01-06T19:21:32.551Z,6.43
2019-01-06T19:25:55.059Z,6.17
2019-01-06T19:30:16.554Z,6.57
2019-01-06T19:34:40.455Z,6.13
2019-01-06T19:39:02.277Z,7.43
2019-01-06T19:43:24.007Z,7.37
2019-01-06T19:47:56.649Z,6.87
2019-01-06T19:52:22.492Z,7.60
2019-01-06T19:57:00.748Z,7.77
2019-01-06T20:01:14.947Z,8.27
2019-01-06T20:05:36.905Z,7.93
2019-01-06T20:09:58.352Z,7.30
2019-01-06T20:14:21.916Z,7.60
2019-01-06T20:18:50.692Z,8.53
2019-01-06T20:23:12.887Z,7.10
2019-01-06T20:27:34.781Z,7.57
2019-01-06T20:31:56.850Z,10.00
2019-01-06T20:36:35.239Z,11.20
2019-01-06T20:41:03.782Z,9.63
2019-01-06T20:45:25.261Z,7.93
2019-01-06T20:49:47.233Z,7.97
2019-01-06T20:54:10.167Z,9.00
2019-01-06T20:58:29.634Z,9.07
2019-01-06T21:03:03.155Z,10.20
2019-01-06T21:07:18.000Z,10.17
2019-01-06T21:11:39.972Z,10.87
2019-01-06T21:16:01.506Z,12.27
2019-01-06T21:20:16.646Z,11.37
2019-01-06T21:24:48.603Z,10.37
2019-01-06T21:29:17.159Z,10.57
2019-01-06T21:33:52.469Z,10.03
2019-01-06T21:38:09.899Z,8.90
2019-01-06T21:42:33.508Z,8.13
2019-01-06T21:46:56.180Z,10.03
2019-01-06T21:51:21.010Z,8.53
2019-01-06T21:55:46.431Z,9.00
2019-01-06T22:00:09.619Z,9.27
2019-01-06T22:04:31.366Z,7.40
2019-01-06T22:09:06.094Z,10.20
2019-01-06T22:13:47.240Z,9.80
2019-01-06T22:18:13.279Z,8.57
2019-01-06T22:22:36.189Z,8.77
2019-01-06T22:27:05.092Z,8.17
2019-01-06T22:31:26.415Z,8.60
2019-01-06T22:35:54.385Z,8.50
2019-01-06T22:40:16.095Z,10.10
2019-01-06T22:44:37.659Z,8.07
2019-01-06T22:49:06.256Z,8.77
2019-01-06T22:53:23.284Z,9.90
2019-01-06T22:57:45.121Z,9.80
2019-01-06T23:02:05.910Z,10.10
2019-01-06T23:06:20.373Z,10.33
2019-01-06T23:10:42.219Z,10.90
2019-01-06T23:15:07.872Z,10.23
2019-01-06T23:19:46.203Z,12.33
2019-01-06T23:24:08.370Z,10.60
2019-01-06T23:28:30.128Z,10.37
2019-01-06T23:32:52.505Z,9.33
2019-01-06T23:37:26.387Z,10.23
2019-01-06T23:41:48.197Z,9.93
2019-01-06T23:46:14.161Z,11.67
2019-01-06T23:50:46.115Z,10.20
2019-01-06T23:55:08.024Z,10.90
2019-01-06T23:59:29.537Z,10.47
